Domov               UVHVVR             MKGP            O straneh              
ZDRAVSTVENO VARSTVO RASTLIN
  MREŽA AGROMET. POSTAJ
 ► PROGNOSTIČNA OBVESTILA
AGROMETEOROLOŠKI PODATKI -
ARSO
OBVLADOVANJE TVEGANJ ZARADI
NEUGODNIH VREMENSKIH RAZMER
  ► NARAVNE NESREČE
  ► SUŠA/MOČA
  ► NAMAKANJE
  ► ŽLED (gozdarstvo)
KARTOGRAFSKI PRIKAZI
SPLETNE POVEZAVE
PROJEKTI IN PUBLIKACIJE

AGROMETEOROLOŠKA MREŽA: VREMENSKE POSTAJE IN FENOLOŠKA OPAZOVANJA

Pregled podatkov za lokacijo Senožeti, meteorološka postaja 37929

Pregled senzorjev na lokaciji

ID Ime Zadnja
vrednost
Datum
zadnje
spremembe
Tip
senzorja
1791 Omočenost lista (U) 0 U 20.6.2018 16:00 A730WET
1794 Padavine (mm) 0 mm 20.6.2018 16:00 Rain-O-Matic
4276 Relativna vlaga 2 m (% RH) 38,51 % RH 20.6.2018 16:00 50YA
4275 Temperatura 2 m (°C) 31,16 °C 20.6.2018 16:00 50YA

Pregled podatkov zadnjih 24 ur

Zap.
št.
Datum in čas Senožeti
Omočenost
lista
Padavine Relativna
vlaga
2
m
Temperatura
2
m
1 20.6.2018 16:30
2 20.6.2018 16:00
3 20.6.2018 15:30
4 20.6.2018 15:00 0 0 38,5 31,2
5 20.6.2018 14:30 0 0 42 29,8
6 20.6.2018 14:00 0 0 40,9 30,5
7 20.6.2018 13:30 0 0 41,7 30
8 20.6.2018 13:00 0 0 41,9 29,1
9 20.6.2018 12:30 0 0 43,1 28,9
10 20.6.2018 12:00 0 0 42,9 28,7
11 20.6.2018 11:30 0 0 48,3 27,7
12 20.6.2018 11:00 0 0 50,6 26,6
13 20.6.2018 10:30 0 0 58,1 24,7
14 20.6.2018 10:00 0 0 66,5 22,8
15 20.6.2018 09:30 0 0 68,1 22
16 20.6.2018 09:00 0 0 70 21,1
17 20.6.2018 08:30 10 0 75,5 19,5
18 20.6.2018 08:00 10 0 80,3 18,2
19 20.6.2018 07:30 10 0 82,3 17,7
20 20.6.2018 07:00 10 0 85,7 17,1
21 20.6.2018 06:30 10 0 93,7 15,7
22 20.6.2018 06:00 10 0 99,9 14,6
23 20.6.2018 05:30 10 0 99,9 13,3
24 20.6.2018 05:00 10 0 99,9 12,5
25 20.6.2018 04:30 10 0 99,9 12,1
26 20.6.2018 04:00 10 0 99,9 12,2
27 20.6.2018 03:30 10 0 99,9 12,4
28 20.6.2018 03:00 10 0 99,8 12,6
29 20.6.2018 02:30 10 0 99,5 12,9
30 20.6.2018 02:00 10 0 98,5 13
31 20.6.2018 01:30 10 0 96,9 13,1
32 20.6.2018 01:00 10 0 95,6 13,2
33 20.6.2018 00:30 10 0 95,3 13,5
34 20.6.2018 00:00 10 0 94,6 13,7
35 19.6.2018 23:30 9 0 93,9 14,1
36 19.6.2018 23:00 4 0 92,9 14,6
37 19.6.2018 22:30 1 0 91,3 15
38 19.6.2018 22:00 0 0 90 15,4
39 19.6.2018 21:30 0 0 87,8 15,9
40 19.6.2018 21:00 0 0 83,7 16,7
41 19.6.2018 20:30 0 0 78,3 17,9
42 19.6.2018 20:00 0 0 73,8 19
43 19.6.2018 19:30 0 0 67,5 20,5
44 19.6.2018 19:00 0 0 62,1 21,8
45 19.6.2018 18:30 0 0 54,1 24
46 19.6.2018 18:00 0 0 44,6 26,4
47 19.6.2018 17:30 0 0 39,2 28
48 19.6.2018 17:00 0 0 36,9 28,8
© 2011 Ministrstvo za kmetijstvo, gozdarstvo in prehrano. Vse pravice pridržane.